createdAt,value
2018-06-09T00:00:28.436Z,0
2018-06-09T00:01:28.439Z,0
2018-06-09T00:02:28.429Z,0
2018-06-09T00:03:28.403Z,0
2018-06-09T00:04:28.439Z,0
2018-06-09T00:05:28.429Z,0
2018-06-09T00:06:28.403Z,0
2018-06-09T00:07:28.357Z,0
2018-06-09T00:08:28.374Z,0
2018-06-09T00:09:28.470Z,0
2018-06-09T00:10:28.480Z,0
2018-06-09T00:11:28.381Z,0
2018-06-09T00:12:28.442Z,0
2018-06-09T00:13:28.413Z,0
2018-06-09T00:14:28.381Z,0
2018-06-09T00:15:28.473Z,0
2018-06-09T00:16:28.363Z,0
2018-06-09T00:17:28.450Z,0
2018-06-09T00:18:28.372Z,0
2018-06-09T00:19:28.387Z,0
2018-06-09T00:20:28.468Z,0
2018-06-09T00:21:28.489Z,0
2018-06-09T00:22:28.450Z,0
2018-06-09T00:23:28.468Z,0
2018-06-09T00:24:28.388Z,0
2018-06-09T00:25:28.414Z,0
2018-06-09T00:26:28.365Z,0
2018-06-09T00:27:28.480Z,0
2018-06-09T00:28:28.451Z,0
2018-06-09T00:29:28.390Z,0
2018-06-09T00:30:28.485Z,0
2018-06-09T00:31:28.371Z,0
2018-06-09T00:32:28.422Z,0
2018-06-09T00:33:28.376Z,0
2018-06-09T00:34:28.453Z,0
2018-06-09T00:35:28.434Z,0
2018-06-09T00:36:28.394Z,0
2018-06-09T00:37:28.425Z,0
2018-06-09T00:38:28.396Z,0
2018-06-09T00:39:28.381Z,0
2018-06-09T00:40:28.421Z,0
2018-06-09T00:41:28.442Z,0
2018-06-09T00:42:28.475Z,0
2018-06-09T00:43:28.446Z,0
2018-06-09T00:44:28.510Z,0
2018-06-09T00:45:28.441Z,0
2018-06-09T00:46:28.367Z,0
2018-06-09T00:47:28.377Z,0
2018-06-09T00:48:28.456Z,0
2018-06-09T00:49:28.338Z,0
2018-06-09T00:50:28.362Z,0
2018-06-09T00:51:28.368Z,0
2018-06-09T00:52:28.365Z,0
2018-06-09T00:53:28.323Z,0
2018-06-09T00:54:28.371Z,0
2018-06-09T00:55:28.454Z,0
2018-06-09T00:56:28.407Z,0
2018-06-09T00:57:28.527Z,0
2018-06-09T00:58:28.414Z,0
2018-06-09T00:59:28.470Z,0
2018-06-09T01:00:28.513Z,0
2018-06-09T01:01:28.434Z,0
2018-06-09T01:02:28.397Z,0
2018-06-09T01:03:28.412Z,0
2018-06-09T01:04:28.414Z,0
2018-06-09T01:05:28.477Z,0
2018-06-09T01:06:28.569Z,0
2018-06-09T01:07:28.437Z,0
2018-06-09T01:08:28.497Z,0
2018-06-09T01:09:28.512Z,0
2018-06-09T01:10:28.503Z,0
2018-06-09T01:11:28.421Z,0
2018-06-09T01:12:28.502Z,0
2018-06-09T01:13:28.403Z,0
2018-06-09T01:14:28.522Z,0
2018-06-09T01:15:28.501Z,0
2018-06-09T01:16:28.490Z,0
2018-06-09T01:17:28.496Z,0
2018-06-09T01:18:28.460Z,0
2018-06-09T01:19:28.484Z,0
2018-06-09T01:20:28.453Z,0
2018-06-09T01:21:28.425Z,0
2018-06-09T01:22:28.417Z,0
2018-06-09T01:23:28.513Z,0
2018-06-09T01:24:28.429Z,0
2018-06-09T01:25:28.552Z,0
2018-06-09T01:26:28.421Z,0
2018-06-09T01:27:28.463Z,0
2018-06-09T01:28:28.455Z,0
2018-06-09T01:29:28.512Z,0
2018-06-09T01:30:28.474Z,0
2018-06-09T01:31:28.457Z,0
2018-06-09T01:32:28.465Z,0
2018-06-09T01:33:28.467Z,0
2018-06-09T01:34:28.559Z,0
2018-06-09T01:35:28.528Z,0
2018-06-09T01:36:28.503Z,0
2018-06-09T01:37:28.430Z,0
2018-06-09T01:38:28.399Z,0
2018-06-09T01:39:28.510Z,0
2018-06-09T01:40:28.431Z,0
2018-06-09T01:41:28.432Z,0
2018-06-09T01:42:28.449Z,0
2018-06-09T01:43:28.438Z,0
2018-06-09T01:44:28.563Z,0
2018-06-09T01:45:28.435Z,0
2018-06-09T01:46:28.418Z,0
2018-06-09T01:47:28.525Z,0
2018-06-09T01:48:28.563Z,0
2018-06-09T01:49:28.505Z,0
2018-06-09T01:50:28.523Z,0
2018-06-09T01:51:28.538Z,0
2018-06-09T01:52:28.467Z,0
2018-06-09T01:53:28.481Z,0
2018-06-09T01:54:28.513Z,0
2018-06-09T01:55:28.482Z,0
2018-06-09T01:56:28.479Z,0
2018-06-09T01:57:28.432Z,0
2018-06-09T01:58:28.570Z,0
2018-06-09T01:59:28.443Z,0
2018-06-09T02:00:28.509Z,0
2018-06-09T02:01:28.544Z,0
2018-06-09T02:02:28.416Z,0
2018-06-09T02:03:28.448Z,0
2018-06-09T02:04:28.617Z,0
2018-06-09T02:05:28.542Z,0
2018-06-09T02:06:28.515Z,0
2018-06-09T02:07:28.435Z,0
2018-06-09T02:08:28.498Z,0
2018-06-09T02:09:28.482Z,0
2018-06-09T02:10:28.421Z,0
2018-06-09T02:11:28.527Z,0
2018-06-09T02:12:28.579Z,0
2018-06-09T02:13:28.490Z,0
2018-06-09T02:14:28.539Z,0
2018-06-09T02:15:28.440Z,0
2018-06-09T02:16:28.427Z,0
2018-06-09T02:17:28.546Z,0
2018-06-09T02:18:28.545Z,0
2018-06-09T02:19:28.503Z,0
2018-06-09T02:20:28.464Z,0
2018-06-09T02:21:28.498Z,0
2018-06-09T02:22:28.443Z,0
2018-06-09T02:23:28.536Z,0
2018-06-09T02:24:28.455Z,0
2018-06-09T02:25:28.502Z,0
2018-06-09T02:26:28.502Z,0
2018-06-09T02:27:28.504Z,0
2018-06-09T02:28:28.466Z,0
2018-06-09T02:29:28.469Z,0
2018-06-09T02:30:28.458Z,0
2018-06-09T02:31:28.529Z,0
2018-06-09T02:32:28.506Z,0
2018-06-09T02:33:28.473Z,0
2018-06-09T02:34:28.512Z,0
2018-06-09T02:35:28.535Z,0
2018-06-09T02:36:28.540Z,0
2018-06-09T02:37:28.469Z,0
2018-06-09T02:38:28.469Z,0
2018-06-09T02:39:28.544Z,0
2018-06-09T02:40:28.471Z,0
2018-06-09T02:41:28.472Z,0
2018-06-09T02:42:28.488Z,0
2018-06-09T02:43:28.474Z,0
2018-06-09T02:44:28.472Z,0
2018-06-09T02:45:28.545Z,0
2018-06-09T02:46:28.561Z,0
2018-06-09T02:47:28.553Z,0
2018-06-09T02:48:28.572Z,0
2018-06-09T02:49:28.486Z,0
2018-06-09T02:50:28.552Z,0
2018-06-09T02:51:28.547Z,0
2018-06-09T02:52:28.591Z,0
2018-06-09T02:53:28.527Z,0
2018-06-09T02:54:28.556Z,0
2018-06-09T02:55:28.553Z,5
2018-06-09T02:56:28.556Z,5
2018-06-09T02:57:28.528Z,5
2018-06-09T02:58:28.575Z,5
2018-06-09T02:59:28.553Z,5
2018-06-09T03:00:28.494Z,5
2018-06-09T03:01:28.479Z,5
2018-06-09T03:02:28.494Z,5
2018-06-09T03:03:28.580Z,5
2018-06-09T03:04:28.650Z,11
2018-06-09T03:05:28.528Z,11
2018-06-09T03:06:28.498Z,11
2018-06-09T03:07:28.495Z,11
2018-06-09T03:08:28.484Z,11
2018-06-09T03:09:28.528Z,16
2018-06-09T03:10:28.480Z,16
2018-06-09T03:11:28.532Z,16
2018-06-09T03:12:28.599Z,16
2018-06-09T03:13:28.535Z,22
2018-06-09T03:14:28.528Z,22
2018-06-09T03:15:28.535Z,22
2018-06-09T03:16:28.604Z,28
2018-06-09T03:17:28.526Z,28
2018-06-09T03:18:28.534Z,33
2018-06-09T03:19:28.620Z,33
2018-06-09T03:22:28.565Z,45
2018-06-09T03:23:28.611Z,45
2018-06-09T03:24:28.538Z,50
2018-06-09T03:25:28.491Z,50
2018-06-09T03:26:28.492Z,56
2018-06-09T03:27:28.488Z,56
2018-06-09T03:28:28.506Z,56
2018-06-09T03:29:28.597Z,61
2018-06-09T03:30:28.531Z,67
2018-06-09T03:31:28.546Z,73
2018-06-09T03:32:28.620Z,73
2018-06-09T03:33:28.534Z,78
2018-06-09T03:34:28.570Z,84
2018-06-09T03:35:28.576Z,90
2018-06-09T03:36:28.609Z,95
2018-06-09T03:37:28.551Z,101
2018-06-09T03:38:28.482Z,101
2018-06-09T03:39:28.576Z,106
2018-06-09T03:40:28.579Z,106
2018-06-09T03:41:28.611Z,112
2018-06-09T03:42:28.534Z,112
2018-06-09T03:43:28.603Z,118
2018-06-09T03:44:28.552Z,118
2018-06-09T03:45:28.560Z,118
2018-06-09T03:46:28.527Z,123
2018-06-09T03:47:28.490Z,123
2018-06-09T03:48:28.606Z,129
2018-06-09T03:49:28.464Z,129
2018-06-09T03:50:28.572Z,135
2018-06-09T03:51:28.578Z,135
2018-06-09T03:52:28.577Z,140
2018-06-09T03:53:28.585Z,146
2018-06-09T03:54:28.577Z,146
2018-06-09T03:55:28.578Z,157
2018-06-09T03:56:28.460Z,163
2018-06-09T03:57:28.562Z,174
2018-06-09T03:58:28.523Z,180
2018-06-09T03:59:28.479Z,191
2018-06-09T04:00:28.525Z,196
2018-06-09T04:01:28.544Z,196
2018-06-09T04:02:28.570Z,213
2018-06-09T04:03:28.489Z,213
2018-06-09T04:04:28.487Z,219
2018-06-09T04:05:28.522Z,225
2018-06-09T04:06:28.629Z,230
2018-06-09T04:07:28.605Z,230
2018-06-09T04:08:28.553Z,236
2018-06-09T04:09:28.536Z,241
2018-06-09T04:10:28.556Z,247
2018-06-09T04:11:28.537Z,253
2018-06-09T04:12:28.632Z,253
2018-06-09T04:13:28.635Z,258
2018-06-09T04:14:28.641Z,264
2018-06-09T04:15:28.565Z,270
2018-06-09T04:16:28.600Z,275
2018-06-09T04:17:28.875Z,281
2018-06-09T04:18:28.579Z,292
2018-06-09T04:19:28.646Z,298
2018-06-09T04:20:28.587Z,303
2018-06-09T04:21:28.506Z,315
2018-06-09T04:22:28.588Z,326
2018-06-09T04:23:28.507Z,337
2018-06-09T04:24:28.630Z,348
2018-06-09T04:25:28.607Z,365
2018-06-09T04:26:28.649Z,371
2018-06-09T04:27:28.636Z,382
2018-06-09T04:28:28.587Z,393
2018-06-09T04:29:28.583Z,393
2018-06-09T04:30:28.645Z,405
2018-06-09T04:31:28.517Z,410
2018-06-09T04:32:28.583Z,421
2018-06-09T04:33:28.613Z,433
2018-06-09T04:34:28.644Z,433
2018-06-09T04:35:28.639Z,433
2018-06-09T04:36:28.585Z,433
2018-06-09T04:38:28.492Z,427
2018-06-09T04:39:28.595Z,427
2018-06-09T04:40:28.592Z,421
2018-06-09T04:41:28.484Z,416
2018-06-09T04:42:28.554Z,410
2018-06-09T04:43:28.518Z,405
2018-06-09T04:44:28.516Z,399
2018-06-09T04:45:28.582Z,399
2018-06-09T04:46:28.585Z,399
2018-06-09T04:47:28.560Z,405
2018-06-09T04:48:28.629Z,410
2018-06-09T04:49:28.630Z,421
2018-06-09T04:50:28.557Z,427
2018-06-09T04:51:28.558Z,438
2018-06-09T04:52:28.633Z,450
2018-06-09T04:53:28.591Z,455
2018-06-09T04:54:28.630Z,466
2018-06-09T04:55:28.561Z,472
2018-06-09T04:56:28.562Z,483
2018-06-09T04:57:28.663Z,500
2018-06-09T04:58:28.614Z,523
2018-06-09T04:59:28.547Z,551
2018-06-09T05:00:28.591Z,562
2018-06-09T05:01:28.560Z,573
2018-06-09T05:02:28.552Z,590
2018-06-09T05:03:28.651Z,613
2018-06-09T05:04:28.559Z,618
2018-06-09T05:05:28.539Z,630
2018-06-09T05:06:28.592Z,646
2018-06-09T05:07:28.600Z,658
2018-06-09T05:08:28.574Z,663
2018-06-09T05:09:28.673Z,669
2018-06-09T05:10:28.637Z,680
2018-06-09T05:11:28.556Z,691
2018-06-09T05:12:28.581Z,697
2018-06-09T05:13:28.638Z,703
2018-06-09T05:14:28.637Z,708
2018-06-09T05:15:28.551Z,714
2018-06-09T05:16:28.545Z,720
2018-06-09T05:17:28.642Z,725
2018-06-09T05:18:28.646Z,731
2018-06-09T05:19:28.670Z,736
2018-06-09T05:20:28.668Z,748
2018-06-09T05:21:28.610Z,753
2018-06-09T05:22:28.624Z,759
2018-06-09T05:23:28.608Z,765
2018-06-09T05:24:28.648Z,770
2018-06-09T05:25:28.553Z,770
2018-06-09T05:26:28.651Z,770
2018-06-09T05:27:28.578Z,776
2018-06-09T05:28:28.520Z,781
2018-06-09T05:29:28.524Z,781
2018-06-09T05:30:28.551Z,804
2018-06-09T05:31:28.616Z,804
2018-06-09T05:32:28.636Z,810
2018-06-09T05:33:28.529Z,815
2018-06-09T05:34:28.527Z,826
2018-06-09T05:35:28.606Z,826
2018-06-09T05:36:28.546Z,832
2018-06-09T05:37:28.655Z,838
2018-06-09T05:38:28.698Z,838
2018-06-09T05:39:28.576Z,832
2018-06-09T05:40:28.688Z,826
2018-06-09T05:41:28.578Z,821
2018-06-09T05:42:28.634Z,821
2018-06-09T05:43:28.667Z,821
2018-06-09T05:44:28.677Z,821
2018-06-09T05:45:28.639Z,832
2018-06-09T05:46:28.735Z,849
2018-06-09T05:47:28.569Z,860
2018-06-09T05:48:28.582Z,877
2018-06-09T05:49:28.699Z,894
2018-06-09T05:50:28.677Z,916
2018-06-09T05:51:28.630Z,933
2018-06-09T05:52:28.629Z,950
2018-06-09T05:53:28.662Z,973
2018-06-09T05:54:28.699Z,984
2018-06-09T05:55:28.708Z,1006
2018-06-09T05:56:28.650Z,1029
2018-06-09T05:57:28.676Z,1051
2018-06-09T05:58:28.706Z,1080
2018-06-09T05:59:28.641Z,1085
2018-06-09T06:00:28.668Z,1102
2018-06-09T06:01:28.752Z,1113
2018-06-09T06:02:28.613Z,1125
2018-06-09T06:03:28.712Z,1136
2018-06-09T06:04:28.656Z,1147
2018-06-09T06:05:28.583Z,1158
2018-06-09T06:06:28.648Z,1181
2018-06-09T06:07:28.665Z,1181
2018-06-09T06:08:28.700Z,1226
2018-06-09T06:09:28.672Z,1260
2018-06-09T06:10:28.598Z,1288
2018-06-09T06:11:28.672Z,1299
2018-06-09T06:12:28.671Z,1310
2018-06-09T06:13:28.559Z,1321
2018-06-09T06:14:28.604Z,1327
2018-06-09T06:15:28.680Z,1344
2018-06-09T06:16:28.561Z,1355
2018-06-09T06:17:28.679Z,1383
2018-06-09T06:18:28.589Z,1423
2018-06-09T06:19:28.628Z,1507
2018-06-09T06:20:28.591Z,1597
2018-06-09T06:21:28.678Z,1642
2018-06-09T06:22:28.592Z,1524
2018-06-09T06:23:28.681Z,1479
2018-06-09T06:24:28.605Z,1445
2018-06-09T06:25:28.617Z,1428
2018-06-09T06:26:28.617Z,1423
2018-06-09T06:27:28.626Z,1411
2018-06-09T06:28:28.633Z,1406
2018-06-09T06:29:28.626Z,1411
2018-06-09T06:30:28.637Z,1423
2018-06-09T06:31:28.692Z,1440
2018-06-09T06:32:28.691Z,1468
2018-06-09T06:33:28.630Z,1479
2018-06-09T06:34:28.624Z,1501
2018-06-09T06:35:28.697Z,1507
2018-06-09T06:36:28.630Z,1513
2018-06-09T06:37:28.587Z,1518
2018-06-09T06:38:28.570Z,1530
2018-06-09T06:39:28.567Z,1535
2018-06-09T06:40:28.598Z,1563
2018-06-09T06:41:28.594Z,1591
2018-06-09T06:42:28.600Z,1625
2018-06-09T06:43:28.592Z,1648
2018-06-09T06:44:28.766Z,1687
2018-06-09T06:45:28.574Z,1856
2018-06-09T06:46:28.573Z,1755
2018-06-09T06:47:28.630Z,1833
2018-06-09T06:48:28.628Z,1974
2018-06-09T06:49:28.607Z,2098
2018-06-09T06:50:28.704Z,2137
2018-06-09T06:51:28.766Z,2053
2018-06-09T06:52:28.683Z,2278
2018-06-09T06:53:28.646Z,2205
2018-06-09T06:54:28.632Z,2221
2018-06-09T06:55:28.648Z,2047
2018-06-09T06:56:28.674Z,2176
2018-06-09T06:57:28.679Z,2165
2018-06-09T06:58:28.649Z,1895
2018-06-09T06:59:28.754Z,1800
2018-06-09T07:00:28.729Z,1738
2018-06-09T07:01:28.683Z,1597
2018-06-09T07:02:28.640Z,1524
2018-06-09T07:03:28.637Z,1462
2018-06-09T07:04:28.638Z,1411
2018-06-09T07:05:28.743Z,1383
2018-06-09T07:06:28.652Z,1378
2018-06-09T07:07:28.685Z,1389
2018-06-09T07:08:28.623Z,1423
2018-06-09T07:09:28.621Z,1451
2018-06-09T07:10:28.661Z,1468
2018-06-09T07:11:28.683Z,1479
2018-06-09T07:12:28.698Z,1485
2018-06-09T07:13:28.776Z,1501
2018-06-09T07:14:28.716Z,1524
2018-06-09T07:15:28.719Z,1530
2018-06-09T07:16:28.660Z,1546
2018-06-09T07:17:28.658Z,1552
2018-06-09T07:18:28.655Z,1558
2018-06-09T07:19:28.725Z,1563
2018-06-09T07:20:28.731Z,1569
2018-06-09T07:21:28.658Z,1580
2018-06-09T07:22:28.738Z,1608
2018-06-09T07:23:28.663Z,1620
2018-06-09T07:24:28.739Z,1636
2018-06-09T07:25:28.664Z,1653
2018-06-09T07:26:28.727Z,1659
2018-06-09T07:27:28.665Z,1665
2018-06-09T07:28:28.771Z,1693
2018-06-09T07:29:28.746Z,1665
2018-06-09T07:30:28.760Z,1665
2018-06-09T07:31:28.708Z,1693
2018-06-09T07:32:28.769Z,1710
2018-06-09T07:33:28.734Z,1738
2018-06-09T07:34:28.743Z,1755
2018-06-09T07:35:28.707Z,1771
2018-06-09T07:36:28.770Z,1805
2018-06-09T07:37:28.666Z,1850
2018-06-09T07:38:28.739Z,1901
2018-06-09T07:39:28.672Z,1957
2018-06-09T07:40:28.739Z,2025
2018-06-09T07:41:28.740Z,2086
2018-06-09T07:42:28.673Z,2160
2018-06-09T07:43:28.673Z,2244
2018-06-09T07:44:28.673Z,2407
2018-06-09T07:45:28.742Z,2643
2018-06-09T07:46:28.679Z,2424
2018-06-09T07:47:28.632Z,2385
2018-06-09T07:48:28.617Z,2362
2018-06-09T07:49:28.647Z,2368
2018-06-09T07:50:28.636Z,2379
2018-06-09T07:51:28.613Z,2407
2018-06-09T07:52:28.733Z,2452
2018-06-09T07:53:28.737Z,2458
2018-06-09T07:54:28.676Z,2458
2018-06-09T07:55:28.709Z,2458
2018-06-09T07:56:28.733Z,2480
2018-06-09T07:57:28.776Z,2497
2018-06-09T07:58:28.750Z,2525
2018-06-09T07:59:28.668Z,2548
2018-06-09T08:00:28.718Z,2598
2018-06-09T08:01:28.686Z,2655
2018-06-09T08:02:28.656Z,2688
2018-06-09T08:03:28.659Z,2750
2018-06-09T08:04:28.716Z,2958
2018-06-09T08:05:28.752Z,3054
2018-06-09T08:06:28.674Z,3048
2018-06-09T08:07:28.790Z,3127
2018-06-09T08:08:28.777Z,3307
2018-06-09T08:09:28.716Z,3403
2018-06-09T08:10:28.686Z,3481
2018-06-09T08:11:28.697Z,3616
2018-06-09T08:12:28.763Z,3735
2018-06-09T08:13:28.700Z,4488
2018-06-09T08:14:28.687Z,3611
2018-06-09T08:15:28.751Z,3166
2018-06-09T08:16:28.637Z,3144
2018-06-09T08:17:28.762Z,3105
2018-06-09T08:18:28.743Z,3397
2018-06-09T08:19:28.733Z,3346
2018-06-09T08:20:28.765Z,3701
2018-06-09T08:21:28.762Z,4089
2018-06-09T08:22:28.731Z,3510
2018-06-09T08:23:28.774Z,3673
2018-06-09T08:24:28.706Z,3470
2018-06-09T08:25:28.774Z,3228
2018-06-09T08:26:28.671Z,3296
2018-06-09T08:27:28.767Z,3780
2018-06-09T08:28:28.827Z,3819
2018-06-09T08:29:28.746Z,3836
2018-06-09T08:30:28.753Z,3453
2018-06-09T08:31:28.752Z,3206
2018-06-09T08:32:28.740Z,3228
2018-06-09T08:33:28.810Z,3251
2018-06-09T08:34:28.774Z,3481
2018-06-09T08:35:28.678Z,3346
2018-06-09T08:36:28.783Z,3436
2018-06-09T08:37:28.714Z,3453
2018-06-09T08:38:28.783Z,3223
2018-06-09T08:39:28.796Z,3313
2018-06-09T08:40:28.719Z,3200
2018-06-09T08:41:28.813Z,3217
2018-06-09T08:42:28.801Z,3633
2018-06-09T08:43:28.716Z,3746
2018-06-09T08:44:28.801Z,3498
2018-06-09T08:45:28.757Z,3706
2018-06-09T08:46:28.688Z,3313
2018-06-09T08:47:28.769Z,3448
2018-06-09T08:48:28.739Z,3375
2018-06-09T08:49:28.772Z,3780
2018-06-09T08:50:28.759Z,4612
2018-06-09T08:51:28.713Z,4865
2018-06-09T08:52:28.722Z,4393
2018-06-09T08:53:28.716Z,4415
2018-06-09T08:54:28.771Z,4460
2018-06-09T08:55:28.667Z,4629
2018-06-09T08:56:28.718Z,4595
2018-06-09T08:57:28.723Z,4651
2018-06-09T08:58:28.791Z,4747
2018-06-09T08:59:28.721Z,4736
2018-06-09T09:00:28.795Z,4730
2018-06-09T09:01:28.726Z,4702
2018-06-09T09:02:28.723Z,4567
2018-06-09T09:03:28.724Z,4595
2018-06-09T09:04:28.797Z,4590
2018-06-09T09:05:28.729Z,4584
2018-06-09T09:06:28.807Z,4573
2018-06-09T09:07:28.717Z,4533
2018-06-09T09:08:28.703Z,4494
2018-06-09T09:09:28.806Z,4348
2018-06-09T09:10:28.792Z,4516
2018-06-09T09:11:28.791Z,4730
2018-06-09T09:12:28.794Z,4741
2018-06-09T09:13:28.722Z,4736
2018-06-09T09:14:28.723Z,4618
2018-06-09T09:15:28.799Z,4657
2018-06-09T09:16:28.756Z,4860
2018-06-09T09:17:28.786Z,4573
2018-06-09T09:18:28.734Z,4736
2018-06-09T09:19:28.733Z,4663
2018-06-09T09:20:28.754Z,4376
2018-06-09T09:21:28.793Z,4950
2018-06-09T09:22:28.709Z,5023
2018-06-09T09:23:28.756Z,4348
2018-06-09T09:24:28.671Z,4365
2018-06-09T09:25:28.714Z,4078
2018-06-09T09:26:28.691Z,3881
2018-06-09T09:27:28.811Z,4230
2018-06-09T09:28:28.755Z,4573
2018-06-09T09:29:28.805Z,4843
2018-06-09T09:30:28.811Z,4798
2018-06-09T09:31:28.815Z,4978
2018-06-09T09:32:28.746Z,4995
2018-06-09T09:33:28.745Z,4995
2018-06-09T09:34:28.811Z,5017
2018-06-09T09:35:28.820Z,5045
2018-06-09T09:36:28.746Z,5101
2018-06-09T09:37:28.773Z,5158
2018-06-09T09:38:28.717Z,5169
2018-06-09T09:39:28.781Z,5152
2018-06-09T09:40:28.781Z,5146
2018-06-09T09:41:28.793Z,5169
2018-06-09T09:42:28.790Z,5101
2018-06-09T09:43:28.853Z,5135
2018-06-09T09:44:28.728Z,5158
2018-06-09T09:45:28.760Z,5186
2018-06-09T09:46:28.799Z,5180
2018-06-09T09:47:28.743Z,5169
2018-06-09T09:48:28.757Z,5203
2018-06-09T09:49:28.730Z,5321
2018-06-09T09:50:28.728Z,5293
2018-06-09T09:51:28.731Z,4944
2018-06-09T09:52:28.758Z,4781
2018-06-09T09:53:28.694Z,4651
2018-06-09T09:54:28.730Z,4477
2018-06-09T09:55:28.818Z,4314
2018-06-09T09:56:28.822Z,4072
2018-06-09T09:57:28.695Z,3903
2018-06-09T09:58:28.863Z,3886
2018-06-09T09:59:28.860Z,3982
2018-06-09T10:00:28.807Z,4168
2018-06-09T10:01:28.797Z,4336
2018-06-09T10:02:28.753Z,4550
2018-06-09T10:03:28.801Z,4725
2018-06-09T10:04:28.863Z,4837
2018-06-09T10:05:28.812Z,4961
2018-06-09T10:06:28.771Z,5146
2018-06-09T10:07:28.755Z,5062
2018-06-09T10:08:28.838Z,5090
2018-06-09T10:09:28.874Z,5113
2018-06-09T10:10:28.837Z,5281
2018-06-09T10:11:28.741Z,5338
2018-06-09T10:12:28.872Z,5085
2018-06-09T10:13:28.777Z,5158
2018-06-09T10:14:28.869Z,4916
2018-06-09T10:15:28.806Z,4511
2018-06-09T10:16:28.781Z,4561
2018-06-09T10:17:28.799Z,4916
2018-06-09T10:18:28.880Z,5203
2018-06-09T10:19:28.806Z,5242
2018-06-09T10:20:28.803Z,5270
2018-06-09T10:21:28.884Z,5113
2018-06-09T10:22:28.842Z,4933
2018-06-09T10:23:28.845Z,3993
2018-06-09T10:24:28.863Z,4336
2018-06-09T10:25:28.830Z,4826
2018-06-09T10:26:28.756Z,5068
2018-06-09T10:27:28.806Z,5490
2018-06-09T10:28:28.793Z,5405
2018-06-09T10:29:28.848Z,5445
2018-06-09T10:30:28.781Z,5585
2018-06-09T10:31:28.784Z,5197
2018-06-09T10:32:28.784Z,5180
2018-06-09T10:33:28.823Z,5146
2018-06-09T10:34:28.809Z,5400
2018-06-09T10:35:28.857Z,5523
2018-06-09T10:36:28.854Z,5411
2018-06-09T10:37:28.858Z,5501
2018-06-09T10:38:28.760Z,5596
2018-06-09T10:39:28.864Z,5709
2018-06-09T10:40:28.896Z,5754
2018-06-09T10:41:28.828Z,5737
2018-06-09T10:42:28.880Z,5754
2018-06-09T10:43:28.880Z,5726
2018-06-09T10:44:28.882Z,5445
2018-06-09T10:45:28.779Z,5540
2018-06-09T10:46:28.892Z,5540
2018-06-09T10:47:28.830Z,5270
2018-06-09T10:48:28.835Z,5141
2018-06-09T10:49:28.769Z,5017
2018-06-09T10:50:28.717Z,4854
2018-06-09T10:51:28.721Z,4978
2018-06-09T10:52:28.764Z,4691
2018-06-09T10:53:28.775Z,4533
2018-06-09T10:54:28.718Z,4601
2018-06-09T10:55:28.721Z,4370
2018-06-09T10:56:28.770Z,4353
2018-06-09T10:57:28.820Z,4252
2018-06-09T10:58:28.903Z,4173
2018-06-09T10:59:28.869Z,4308
2018-06-09T11:00:28.767Z,3690
2018-06-09T11:01:28.897Z,2891
2018-06-09T11:02:28.855Z,2705
2018-06-09T11:03:28.807Z,2829
2018-06-09T11:04:28.807Z,3273
2018-06-09T11:05:28.867Z,3155
2018-06-09T11:06:28.870Z,3183
2018-06-09T11:07:28.844Z,4342
2018-06-09T11:08:28.810Z,4415
2018-06-09T11:09:28.875Z,4843
2018-06-09T11:10:28.812Z,4843
2018-06-09T11:11:28.876Z,5040
2018-06-09T11:12:28.813Z,5051
2018-06-09T11:13:28.875Z,5377
2018-06-09T11:14:28.815Z,5118
2018-06-09T11:15:28.812Z,5518
2018-06-09T11:16:28.814Z,5641
2018-06-09T11:17:28.814Z,5754
2018-06-09T11:18:28.880Z,5355
2018-06-09T11:19:28.816Z,4961
2018-06-09T11:20:28.848Z,5017
2018-06-09T11:21:28.865Z,5090
2018-06-09T11:22:28.817Z,5006
2018-06-09T11:23:28.777Z,4944
2018-06-09T11:24:28.923Z,4702
2018-06-09T11:25:28.885Z,4753
2018-06-09T11:26:28.887Z,4882
2018-06-09T11:27:28.818Z,4882
2018-06-09T11:28:28.821Z,4950
2018-06-09T11:29:28.886Z,5107
2018-06-09T11:30:28.889Z,5180
2018-06-09T11:31:28.823Z,5236
2018-06-09T11:32:28.887Z,5315
2018-06-09T11:33:28.774Z,5276
2018-06-09T11:34:28.828Z,5422
2018-06-09T11:35:28.892Z,5124
2018-06-09T11:36:28.828Z,5298
2018-06-09T11:37:28.829Z,5045
2018-06-09T11:38:28.859Z,4871
2018-06-09T11:39:28.881Z,4550
2018-06-09T11:40:28.867Z,4837
2018-06-09T11:41:28.872Z,4944
2018-06-09T11:42:28.938Z,4831
2018-06-09T11:43:28.902Z,4753
2018-06-09T11:44:28.898Z,4663
2018-06-09T11:45:28.895Z,4905
2018-06-09T11:46:28.875Z,4837
2018-06-09T11:47:28.863Z,4590
2018-06-09T11:48:28.858Z,4550
2018-06-09T11:49:28.770Z,4522
2018-06-09T11:50:28.851Z,4426
2018-06-09T11:51:28.897Z,4443
2018-06-09T11:52:28.810Z,4466
2018-06-09T11:53:28.811Z,4595
2018-06-09T11:54:28.897Z,4483
2018-06-09T11:55:28.861Z,4365
2018-06-09T11:56:28.853Z,4207
2018-06-09T11:57:28.909Z,3965
2018-06-09T11:58:28.840Z,3892
2018-06-09T11:59:28.860Z,3639
2018-06-09T12:00:28.890Z,3380
2018-06-09T12:01:28.774Z,3234
2018-06-09T12:02:28.870Z,3307
2018-06-09T12:03:28.834Z,3206
2018-06-09T12:04:28.806Z,3425
2018-06-09T12:05:28.942Z,3504
2018-06-09T12:06:28.781Z,3633
2018-06-09T12:07:28.806Z,3712
2018-06-09T12:08:28.814Z,3712
2018-06-09T12:09:28.867Z,3740
2018-06-09T12:10:28.917Z,3706
2018-06-09T12:11:28.948Z,3819
2018-06-09T12:12:28.850Z,4207
2018-06-09T12:13:28.837Z,4663
2018-06-09T12:14:28.841Z,5017
2018-06-09T12:15:28.824Z,5259
2018-06-09T12:16:28.939Z,5293
2018-06-09T12:17:28.922Z,5315
2018-06-09T12:18:28.877Z,5169
2018-06-09T12:19:28.829Z,5096
2018-06-09T12:20:28.875Z,4983
2018-06-09T12:21:28.923Z,4950
2018-06-09T12:22:28.859Z,5006
2018-06-09T12:23:28.949Z,5023
2018-06-09T12:24:28.832Z,4933
2018-06-09T12:25:28.866Z,4944
2018-06-09T12:26:28.863Z,4826
2018-06-09T12:27:28.924Z,4803
2018-06-09T12:28:28.849Z,4668
2018-06-09T12:29:28.893Z,4657
2018-06-09T12:30:28.905Z,4730
2018-06-09T12:31:28.961Z,4831
2018-06-09T12:32:28.959Z,4854
2018-06-09T12:33:28.959Z,4764
2018-06-09T12:34:28.934Z,4365
2018-06-09T12:35:28.838Z,4449
2018-06-09T12:36:28.967Z,4680
2018-06-09T12:37:28.893Z,4663
2018-06-09T12:38:28.972Z,4533
2018-06-09T12:39:28.904Z,4612
2018-06-09T12:40:28.961Z,4809
2018-06-09T12:41:28.961Z,4893
2018-06-09T12:42:28.965Z,5062
2018-06-09T12:43:28.973Z,5062
2018-06-09T12:44:28.897Z,5085
2018-06-09T12:45:28.863Z,5090
2018-06-09T12:46:28.861Z,5158
2018-06-09T12:47:28.848Z,5214
2018-06-09T12:48:28.902Z,5253
2018-06-09T12:49:28.940Z,5197
2018-06-09T12:50:28.947Z,5169
2018-06-09T12:51:28.859Z,5141
2018-06-09T12:52:28.881Z,5073
2018-06-09T12:53:28.944Z,5034
2018-06-09T12:54:28.877Z,5079
2018-06-09T12:55:28.878Z,4905
2018-06-09T12:56:28.945Z,5006
2018-06-09T12:57:28.953Z,5056
2018-06-09T12:58:28.950Z,4961
2018-06-09T12:59:28.883Z,4888
2018-06-09T13:00:28.954Z,4786
2018-06-09T13:01:28.947Z,4595
2018-06-09T13:02:28.890Z,4246
2018-06-09T13:03:28.952Z,3920
2018-06-09T13:04:28.950Z,3656
2018-06-09T13:05:28.989Z,3442
2018-06-09T13:06:28.889Z,3110
2018-06-09T13:07:28.952Z,2700
2018-06-09T13:08:28.981Z,2407
2018-06-09T13:09:28.972Z,2520
2018-06-09T13:10:28.983Z,2992
2018-06-09T13:11:28.993Z,3408
2018-06-09T13:12:28.959Z,3420
2018-06-09T13:13:28.921Z,3470
2018-06-09T13:14:28.957Z,3515
2018-06-09T13:15:28.940Z,3774
2018-06-09T13:16:28.858Z,4033
2018-06-09T13:17:28.882Z,4308
2018-06-09T13:18:28.942Z,4618
2018-06-09T13:19:28.974Z,4843
2018-06-09T13:20:28.956Z,4831
2018-06-09T13:21:28.993Z,4674
2018-06-09T13:22:28.871Z,4460
2018-06-09T13:23:29.004Z,4111
2018-06-09T13:24:28.964Z,3560
2018-06-09T13:25:28.968Z,2115
2018-06-09T13:26:28.931Z,1687
2018-06-09T13:27:28.943Z,1608
2018-06-09T13:28:28.875Z,1569
2018-06-09T13:29:28.896Z,1603
2018-06-09T13:30:28.969Z,1625
2018-06-09T13:31:28.954Z,1687
2018-06-09T13:32:28.875Z,1726
2018-06-09T13:33:28.961Z,1665
2018-06-09T13:34:28.962Z,1620
2018-06-09T13:35:28.924Z,1648
2018-06-09T13:36:28.926Z,1659
2018-06-09T13:37:28.965Z,1648
2018-06-09T13:38:28.933Z,1659
2018-06-09T13:39:28.899Z,1721
2018-06-09T13:40:29.001Z,1693
2018-06-09T13:41:28.975Z,1704
2018-06-09T13:42:28.941Z,1732
2018-06-09T13:43:28.979Z,1749
2018-06-09T13:44:28.936Z,1771
2018-06-09T13:45:28.956Z,1805
2018-06-09T13:46:28.944Z,1878